Indian Head, Saskatchewan

11:26 AM CST on April 18, 2015 (GMT -0600)
Downtown | | Change Station
CLOSE
Current Station
Personal Weather Station
Location: Indian Head, SASKATCHEWAN
Elevation: 1936 ft
Nearby Weather Stations

Elev 1936 ft 50.53 °N, 103.67 °W | Updated 22 minutes ago

Mostly Cloudy
Mostly Cloudy
50.5 °F
Feels Like 50.5 °F
N
2.0
Wind Variable Wind from SW
Gusts 10.0 mph

Today
High -- | Low -- °F
--% Chance of Precip.
Yesterday
High -- | Low -- °F
Precip. -- in
5:54 AM 7:54 PM
Waning Crescent, 0% visible
Pressure 30.01 in
Visibility 15.0 miles
Clouds Few 3500 ft
Few 8000 ft
Mostly Cloudy 16000 ft
Mostly Cloudy 27000 ft
Dew Point 37 °F
Humidity 59%
Rainfall -999.00 in
Snow Depth Not available.
UV 3 out of 12
Pollen Not available.
Air Quality Not available.
Flu Activity Not available.
METAR CYQR 181700Z 32014G24KT 15SM FEW035 FEW080 BKN160 BKN270 12/04 A2996 RMK CU1ACC1AC4CI1 CU TR SLP160

More Conditions Fewer Conditions

Pressure 30.01 in
Visibility 15.0 miles
Clouds Few 3500 ft
Few 8000 ft
Mostly Cloudy 16000 ft
Mostly Cloudy 27000 ft
Dew Point 37 °F
Humidity 59%
Rainfall -999.00 in
Snow Depth Not available.
UV 3 out of 12
Pollen Not available.
Air Quality Not available.
Flu Activity Not available.
METAR CYQR 181700Z 32014G24KT 15SM FEW035 FEW080 BKN160 BKN270 12/04 A2996 RMK CU1ACC1AC4CI1 CU TR SLP160

More Conditions Fewer Conditions

10-Day Weather Forecast

Almanac

Astronomy

Apr. 18, 2015 Rise Set
Actual Time
Civil Twilight
Nautical Twilight
Astronomical Twilight
Moon
Length of Visible Light
Length of Day
Tomorrow will be .
, % of the Moon is Illuminated

Today's Extremes

Country Highs Country Lows

Community

WunderPhotos

Upload Photos

1,814,467 photos uploaded!

WunderBlogs® & News

Nearby

Air Quality

  Air Quality AQ Index Pollutant
Not available.

Snow Depth

Station Depth Elevation

Earthquake Activity

City Distance Mag. Time & Date
Minimum magnitude displayed is 2.5.

Coastal Water Temperatures

Place Temperature

Stations

Nearby Weather Stations

Station Location Temp. Windchill Dew Point Humidity Wind Precip. Elev Updated Type